Time;durP1;ratioP1;P1;durP2;ratioP2;P2;SDS_P1;SDS_P2;PMS_P1;PMS_P2;Temp;Humidity;BMP_temperature;BMP_pressure;BME280_temperature;BME280_humidity;BME280_pressure;Samples;Min_cycle;Max_cycle;Signal;HPM_P1;HPM_P2
2021/12/15 00:01:33;;;;;;;5.73;2.80;;;5.50;99.90;;;;;;5046973;28;20210;-63
2021/12/15 00:04:01;;;;;;;5.77;3.17;;;5.50;99.90;;;;;;5046849;28;20205;-62
2021/12/15 00:06:29;;;;;;;4.63;3.03;;;5.50;99.90;;;;;;5046454;28;20260;-63
2021/12/15 00:08:59;;;;;;;7.50;3.70;;;5.50;99.90;;;;;;5045865;28;20218;-63
2021/12/15 00:11:33;;;;;;;4.80;2.73;;;5.50;99.90;;;;;;5046717;28;20213;-64
2021/12/15 00:14:01;;;;;;;5.73;2.90;;;5.50;99.90;;;;;;5046844;28;20246;-62
2021/12/15 00:16:29;;;;;;;5.93;2.67;;;5.50;99.90;;;;;;5046795;28;20210;-63
2021/12/15 00:18:56;;;;;;;3.47;2.50;;;5.50;99.90;;;;;;5046740;28;20289;-63
2021/12/15 00:21:23;;;;;;;3.23;2.30;;;5.50;99.90;;;;;;5046162;28;20288;-62
2021/12/15 00:23:52;;;;;;;9.60;4.53;;;5.50;99.90;;;;;;5045753;28;20209;-62
2021/12/15 00:26:19;;;;;;;6.93;3.77;;;5.60;99.90;;;;;;5046655;28;20316;-62
2021/12/15 00:28:47;;;;;;;7.30;3.53;;;5.60;99.90;;;;;;5046457;28;20217;-63
2021/12/15 00:31:14;;;;;;;8.20;4.07;;;5.60;99.90;;;;;;5046409;28;20523;-63
2021/12/15 00:33:44;;;;;;;9.10;5.00;;;5.60;99.90;;;;;;5046666;28;20203;-63
2021/12/15 00:36:12;;;;;;;9.90;4.57;;;5.70;99.90;;;;;;5046201;28;20202;-62
2021/12/15 00:38:39;;;;;;;9.77;3.83;;;5.70;99.90;;;;;;5045602;28;20198;-63
2021/12/15 00:41:08;;;;;;;4.00;3.00;;;5.80;99.90;;;;;;5046419;28;20695;-62
2021/12/15 00:43:35;;;;;;;5.17;2.77;;;5.70;99.90;;;;;;5046312;28;20202;-63
2021/12/15 00:46:03;;;;;;;5.10;2.43;;;5.70;99.90;;;;;;5046117;28;20272;-62
2021/12/15 00:48:30;;;;;;;5.17;2.83;;;5.60;99.90;;;;;;5046117;28;20226;-63
2021/12/15 00:50:57;;;;;;;4.57;2.63;;;5.60;99.90;;;;;;5046048;28;20284;-63
2021/12/15 00:53:24;;;;;;;7.10;3.20;;;5.60;99.90;;;;;;5044222;28;20210;-62
2021/12/15 00:55:51;;;;;;;5.03;2.93;;;5.60;99.90;;;;;;5046407;28;20289;-63
2021/12/15 00:58:19;;;;;;;3.80;3.00;;;5.60;99.90;;;;;;5045528;28;20210;-63
2021/12/15 01:00:49;;;;;;;3.83;2.07;;;5.70;99.90;;;;;;5045811;28;20269;-63
2021/12/15 01:03:16;;;;;;;3.53;2.00;;;5.80;99.90;;;;;;5045838;28;20228;-63
2021/12/15 01:05:48;;;;;;;6.13;3.33;;;5.80;99.90;;;;;;5046014;28;20287;-63
2021/12/15 01:08:18;;;;;;;5.90;3.33;;;5.90;99.90;;;;;;5044480;28;20282;-63
2021/12/15 01:11:01;;;;;;;4.93;3.17;;;5.70;99.90;;;;;;5046064;28;20257;-62
2021/12/15 01:21:54;;;;;;;10.27;5.53;;;5.80;99.90;;;;;;4982957;28;20215;-62
2021/12/15 01:24:21;;;;;;;9.87;4.77;;;5.80;99.90;;;;;;4983125;28;20200;-62
2021/12/15 01:26:48;;;;;;;7.53;4.67;;;5.80;99.90;;;;;;4983983;28;20742;-63
2021/12/15 01:29:17;;;;;;;9.17;4.30;;;5.90;99.90;;;;;;4984121;28;20248;-63
2021/12/15 01:31:44;;;;;;;3.20;2.20;;;5.90;99.90;;;;;;4984184;28;20280;-63
2021/12/15 01:34:11;;;;;;;9.13;3.80;;;6.00;99.90;;;;;;4983961;28;20209;-62
2021/12/15 01:36:38;;;;;;;4.77;2.97;;;5.90;99.90;;;;;;4983416;28;20246;-62
2021/12/15 01:39:05;;;;;;;5.07;3.27;;;5.80;99.90;;;;;;4983409;28;20287;-63
2021/12/15 01:41:33;;;;;;;7.63;3.43;;;5.80;99.90;;;;;;4984003;28;20287;-63
2021/12/15 01:46:54;;;;;;;7.57;3.33;;;5.80;99.90;;;;;;4983758;28;20268;-63
2021/12/15 01:49:28;;;;;;;5.67;3.73;;;5.80;99.90;;;;;;4983640;28;20251;-63
2021/12/15 01:51:57;;;;;;;5.50;2.90;;;5.80;99.90;;;;;;4983299;28;20211;-63
2021/12/15 01:54:27;;;;;;;6.47;2.77;;;5.90;99.90;;;;;;4982886;28;20212;-62
2021/12/15 01:56:55;;;;;;;7.60;3.20;;;5.90;99.90;;;;;;5043414;28;20295;-63
2021/12/15 01:59:25;;;;;;;3.93;2.80;;;5.80;99.90;;;;;;5045093;28;20201;-63
2021/12/15 02:01:53;;;;;;;5.50;2.63;;;5.80;99.90;;;;;;5044870;28;20202;-62
2021/12/15 02:04:20;;;;;;;6.83;3.50;;;5.80;99.90;;;;;;5044766;28;20206;-63
2021/12/15 02:06:49;;;;;;;5.60;3.03;;;5.80;99.90;;;;;;5044330;28;20206;-63
2021/12/15 02:09:32;;;;;;;6.77;4.37;;;5.70;99.90;;;;;;5043992;28;20218;-63
2021/12/15 02:11:59;;;;;;;10.03;4.20;;;5.80;99.90;;;;;;5044874;28;20226;-62
2021/12/15 02:14:30;;;;;;;10.10;4.37;;;5.80;99.90;;;;;;5044491;28;20222;-62
2021/12/15 02:16:59;;;;;;;10.97;3.73;;;5.80;99.90;;;;;;5061963;28;20265;-63
2021/12/15 02:19:26;;;;;;;5.87;3.53;;;5.80;99.90;;;;;;5064688;28;20194;-63
2021/12/15 02:21:54;;;;;;;6.37;3.07;;;5.90;99.90;;;;;;5064107;28;20209;-63
2021/12/15 02:24:23;;;;;;;4.50;3.10;;;5.90;99.90;;;;;;5063587;28;20229;-63
2021/12/15 02:26:57;;;;;;;14.00;5.13;;;6.00;99.90;;;;;;5064491;28;20206;-63
2021/12/15 02:29:24;;;;;;;8.07;4.47;;;6.00;99.90;;;;;;5064826;28;20260;-63
2021/12/15 02:31:56;;;;;;;12.67;5.43;;;6.00;99.90;;;;;;5064970;28;20656;-62
2021/12/15 02:34:44;;;;;;;12.67;5.03;;;6.00;99.90;;;;;;5068733;28;20190;-63
2021/12/15 02:37:17;;;;;;;12.13;5.27;;;6.00;99.90;;;;;;5067957;28;20201;-63
2021/12/15 02:39:45;;;;;;;11.07;4.73;;;6.00;99.90;;;;;;5068068;28;20234;-63
2021/12/15 02:42:11;;;;;;;12.40;4.23;;;6.00;99.90;;;;;;5068613;28;20267;-63
2021/12/15 02:44:43;;;;;;;7.23;4.47;;;6.00;99.90;;;;;;5068724;28;20204;-63
2021/12/15 02:47:12;;;;;;;7.03;3.80;;;6.10;99.90;;;;;;5068297;28;20209;-63
2021/12/15 02:49:40;;;;;;;9.20;4.10;;;6.00;99.90;;;;;;5068405;28;20256;-63
2021/12/15 02:52:08;;;;;;;8.10;3.73;;;5.90;99.90;;;;;;5067687;28;20205;-63
2021/12/15 02:54:36;;;;;;;6.80;3.53;;;5.90;99.90;;;;;;5067366;28;20233;-63
2021/12/15 02:57:09;;;;;;;7.47;3.77;;;6.00;99.90;;;;;;5068419;28;20205;-63
2021/12/15 02:59:48;;;;;;;6.00;3.43;;;6.00;99.90;;;;;;5068496;28;20236;-63
2021/12/15 03:02:33;;;;;;;7.20;4.27;;;6.00;99.90;;;;;;5067968;28;20232;-63
2021/12/15 03:05:07;;;;;;;6.33;3.03;;;6.10;99.90;;;;;;5068157;28;20186;-63
2021/12/15 03:07:41;;;;;;;5.17;3.30;;;6.00;99.90;;;;;;5067427;28;20296;-62
2021/12/15 03:15:38;;;;;;;3.77;2.63;;;6.10;99.90;;;;;;5068035;28;20279;-63
2021/12/15 03:18:08;;;;;;;4.73;2.70;;;6.00;99.90;;;;;;5067582;28;20213;-62
2021/12/15 03:20:38;;;;;;;4.77;2.70;;;6.00;99.90;;;;;;5068074;28;20233;-63
2021/12/15 03:23:07;;;;;;;4.37;2.90;;;6.00;99.90;;;;;;5066504;28;20209;-63
2021/12/15 03:25:36;;;;;;;5.40;2.97;;;6.00;99.90;;;;;;5067510;28;20209;-63
2021/12/15 03:33:42;;;;;;;5.33;3.33;;;6.10;99.90;;;;;;5067620;28;20231;-63
2021/12/15 03:36:14;;;;;;;5.47;3.07;;;6.00;99.90;;;;;;5067534;28;20201;-62
2021/12/15 03:38:42;;;;;;;4.67;2.90;;;6.00;99.90;;;;;;5066381;28;20202;-63
2021/12/15 03:41:12;;;;;;;4.90;2.53;;;5.90;99.90;;;;;;5067613;28;20210;-62
2021/12/15 03:43:41;;;;;;;6.40;2.90;;;5.90;99.90;;;;;;5066121;28;20225;-63
2021/12/15 03:46:10;;;;;;;6.10;2.93;;;5.80;99.90;;;;;;5067306;28;20205;-63
2021/12/15 03:48:42;;;;;;;6.77;3.40;;;5.80;99.90;;;;;;5066903;28;20252;-63
2021/12/15 03:51:10;;;;;;;4.63;2.37;;;5.80;99.90;;;;;;5067296;28;20201;-63
2021/12/15 03:53:37;;;;;;;2.60;1.70;;;5.70;99.90;;;;;;5065518;28;20216;-62
2021/12/15 03:56:04;;;;;;;3.17;1.87;;;5.70;99.90;;;;;;5067154;28;20197;-62
2021/12/15 03:58:33;;;;;;;4.00;1.63;;;5.60;99.90;;;;;;5066875;28;20290;-63
2021/12/15 04:01:06;;;;;;;3.63;2.23;;;5.60;99.90;;;;;;5067267;28;20230;-63
2021/12/15 04:03:36;;;;;;;3.93;1.97;;;5.70;99.90;;;;;;5066843;28;20217;-63
2021/12/15 04:06:05;;;;;;;7.57;2.40;;;5.70;99.90;;;;;;5066716;28;20739;-62
2021/12/15 04:08:34;;;;;;;4.73;2.60;;;5.70;99.90;;;;;;5065272;28;20253;-63
2021/12/15 04:11:02;;;;;;;3.63;2.63;;;5.70;99.90;;;;;;5067001;28;20259;-63
2021/12/15 04:13:29;;;;;;;7.40;2.13;;;5.70;99.90;;;;;;5066896;28;20229;-63
2021/12/15 04:16:06;;;;;;;3.03;2.10;;;5.70;99.90;;;;;;5066756;28;20629;-63
2021/12/15 04:18:35;;;;;;;2.43;1.77;;;5.70;99.90;;;;;;5066161;28;20198;-63
2021/12/15 04:21:03;;;;;;;3.20;2.20;;;5.60;99.90;;;;;;5066672;28;20197;-62
2021/12/15 04:23:30;;;;;;;2.53;1.93;;;5.60;99.90;;;;;;5065118;28;20293;-62
2021/12/15 04:25:58;;;;;;;3.73;2.20;;;5.60;99.90;;;;;;5066864;28;20209;-63
2021/12/15 04:28:27;;;;;;;4.63;2.80;;;5.70;99.90;;;;;;5066112;28;20264;-63
2021/12/15 04:30:58;;;;;;;3.40;2.50;;;5.80;99.90;;;;;;5066639;28;20265;-62
2021/12/15 04:33:34;;;;;;;4.77;2.30;;;5.90;99.90;;;;;;5066595;28;20193;-63
2021/12/15 04:36:03;;;;;;;4.67;2.53;;;5.90;99.90;;;;;;5066715;28;20204;-62
2021/12/15 04:38:32;;;;;;;4.33;2.30;;;6.00;99.90;;;;;;5064981;28;20229;-63
2021/12/15 04:41:01;;;;;;;4.07;2.17;;;6.00;99.90;;;;;;5066593;28;20284;-62
2021/12/15 04:43:33;;;;;;;2.40;2.00;;;6.00;99.90;;;;;;5066286;28;20270;-63
2021/12/15 04:46:02;;;;;;;4.03;2.80;;;5.90;99.90;;;;;;5066603;28;20589;-62
2021/12/15 04:48:29;;;;;;;5.13;2.57;;;5.90;99.90;;;;;;5065829;28;20308;-62
2021/12/15 04:50:57;;;;;;;3.67;2.60;;;5.90;99.90;;;;;;5066439;28;20285;-63
2021/12/15 04:53:23;;;;;;;3.13;2.27;;;5.80;99.90;;;;;;5064399;28;20273;-62
2021/12/15 04:55:51;;;;;;;3.60;2.40;;;5.80;99.90;;;;;;5066232;28;20269;-63
2021/12/15 04:58:18;;;;;;;5.30;2.53;;;5.80;99.90;;;;;;5065751;28;20216;-63
2021/12/15 05:00:48;;;;;;;4.07;2.90;;;5.80;99.90;;;;;;5066267;28;20228;-63
2021/12/15 05:03:17;;;;;;;4.13;2.63;;;5.90;99.90;;;;;;5065348;28;20213;-63
2021/12/15 05:05:44;;;;;;;5.87;3.07;;;5.90;99.90;;;;;;5065772;28;20209;-63
2021/12/15 05:08:12;;;;;;;3.87;2.57;;;5.90;99.90;;;;;;5064162;28;20207;-63
2021/12/15 05:10:40;;;;;;;5.90;2.30;;;5.90;99.90;;;;;;5065894;28;20268;-63
2021/12/15 05:13:08;;;;;;;2.60;2.30;;;5.90;99.90;;;;;;5065461;28;20277;-62
2021/12/15 05:15:36;;;;;;;2.90;2.10;;;5.90;99.90;;;;;;5065686;28;20240;-63
2021/12/15 05:18:04;;;;;;;4.03;2.53;;;5.90;99.90;;;;;;5065338;28;20229;-62
2021/12/15 05:20:35;;;;;;;2.80;2.10;;;5.90;99.90;;;;;;5065726;28;20201;-62
2021/12/15 05:23:03;;;;;;;3.40;2.33;;;5.90;99.90;;;;;;5064546;28;20636;-62
2021/12/15 05:25:30;;;;;;;3.47;2.10;;;6.00;99.90;;;;;;5064980;28;20273;-63
2021/12/15 05:27:58;;;;;;;2.50;1.93;;;6.10;99.90;;;;;;5065061;28;20209;-62
2021/12/15 05:30:26;;;;;;;3.53;2.20;;;6.10;99.90;;;;;;5065582;28;20265;-62
2021/12/15 05:32:53;;;;;;;2.07;1.90;;;6.10;99.90;;;;;;5065090;28;20292;-62
2021/12/15 05:35:23;;;;;;;3.33;1.40;;;6.20;99.90;;;;;;5065522;28;20263;-63
2021/12/15 05:37:53;;;;;;;1.47;1.10;;;6.20;99.90;;;;;;5064116;28;20220;-62
2021/12/15 05:40:21;;;;;;;1.77;1.50;;;6.20;99.90;;;;;;5065577;28;20182;-63
2021/12/15 05:42:48;;;;;;;1.50;1.33;;;6.20;99.90;;;;;;5058174;28;20229;-62
2021/12/15 05:45:15;;;;;;;1.93;1.50;;;6.10;99.90;;;;;;5054939;28;20253;-62
2021/12/15 05:47:42;;;;;;;2.33;1.80;;;6.10;99.90;;;;;;5060123;28;20205;-62
2021/12/15 05:50:12;;;;;;;3.23;1.80;;;6.10;99.90;;;;;;5056153;28;20217;-62
2021/12/15 05:52:40;;;;;;;3.13;1.97;;;6.00;99.90;;;;;;5057730;28;20258;-63
2021/12/15 05:55:11;;;;;;;2.60;1.50;;;6.00;99.90;;;;;;5052748;28;20210;-62
2021/12/15 05:57:38;;;;;;;3.13;1.73;;;6.00;99.90;;;;;;5061310;28;20266;-63
2021/12/15 06:00:08;;;;;;;1.93;1.60;;;6.00;99.90;;;;;;5050786;28;20271;-62
2021/12/15 06:02:35;;;;;;;2.13;1.63;;;6.10;99.90;;;;;;5053432;28;20221;-62
2021/12/15 06:05:02;;;;;;;3.13;1.50;;;6.10;99.90;;;;;;5050110;28;20198;-63
2021/12/15 06:07:29;;;;;;;2.03;1.63;;;6.10;99.90;;;;;;5050516;28;20210;-63
2021/12/15 06:09:56;;;;;;;2.60;1.80;;;6.10;99.90;;;;;;5055029;28;20273;-63
2021/12/15 06:12:26;;;;;;;1.90;1.73;;;6.10;99.90;;;;;;5052467;28;20265;-63
2021/12/15 06:14:53;;;;;;;2.50;2.00;;;6.10;99.90;;;;;;5044724;28;20234;-64
2021/12/15 06:17:25;;;;;;;3.93;2.03;;;6.10;99.90;;;;;;5044649;28;20202;-65
2021/12/15 06:19:52;;;;;;;1.80;1.70;;;6.20;99.90;;;;;;5044942;28;20294;-63
2021/12/15 06:22:24;;;;;;;2.23;1.80;;;6.20;99.90;;;;;;5044483;28;20206;-63
2021/12/15 06:24:51;;;;;;;3.17;1.90;;;6.20;99.90;;;;;;5043725;28;20186;-62
2021/12/15 06:27:20;;;;;;;2.97;2.00;;;6.20;99.90;;;;;;5044859;28;20270;-62
2021/12/15 06:29:49;;;;;;;3.63;1.70;;;6.20;99.90;;;;;;5044743;28;20215;-63
2021/12/15 06:32:17;;;;;;;1.63;1.47;;;6.20;99.90;;;;;;5044582;28;20273;-63
2021/12/15 06:34:44;;;;;;;3.53;3.10;;;6.20;99.90;;;;;;5061028;28;20273;-63
2021/12/15 06:37:11;;;;;;;2.80;2.33;;;6.20;99.90;;;;;;5063891;28;20276;-63
2021/12/15 06:39:39;;;;;;;2.33;1.63;;;6.20;99.90;;;;;;5063879;28;20201;-63
2021/12/15 06:42:06;;;;;;;3.30;1.70;;;6.20;99.90;;;;;;5064270;28;20273;-63
2021/12/15 06:44:34;;;;;;;2.67;1.77;;;6.10;99.90;;;;;;5063979;28;20225;-63
2021/12/15 06:58:12;;;;;;;4.60;2.63;;;6.30;99.90;;;;;;5055279;28;20232;-63
2021/12/15 07:00:43;;;;;;;4.00;1.63;;;6.30;99.90;;;;;;5053012;28;20249;-63
2021/12/15 07:03:12;;;;;;;2.77;1.80;;;6.30;99.90;;;;;;5054723;28;20222;-63
2021/12/15 07:05:40;;;;;;;1.70;1.60;;;6.20;99.90;;;;;;5044382;28;20271;-63
2021/12/15 07:08:08;;;;;;;5.07;1.90;;;6.20;99.90;;;;;;5057767;28;20214;-62
2021/12/15 07:10:38;;;;;;;3.17;2.23;;;6.10;99.90;;;;;;5062461;28;20210;-62
2021/12/15 07:13:06;;;;;;;2.27;1.70;;;6.10;99.90;;;;;;5063282;28;20206;-63
2021/12/15 07:15:36;;;;;;;2.50;1.60;;;6.20;99.90;;;;;;5063488;28;20774;-62
2021/12/15 07:18:06;;;;;;;2.27;1.63;;;6.20;99.90;;;;;;5064267;28;20216;-63
2021/12/15 07:20:40;;;;;;;2.90;1.50;;;6.20;99.90;;;;;;5068020;28;20201;-63
2021/12/15 07:23:09;;;;;;;2.90;1.67;;;6.20;99.90;;;;;;5066284;28;20766;-63
2021/12/15 07:25:38;;;;;;;2.27;1.90;;;6.20;99.90;;;;;;5067471;28;20215;-63
2021/12/15 07:28:06;;;;;;;3.10;1.90;;;6.20;99.90;;;;;;5067338;28;20232;-63
2021/12/15 07:30:35;;;;;;;2.77;1.80;;;6.20;99.90;;;;;;5067674;28;20277;-63
2021/12/15 07:33:02;;;;;;;3.33;1.70;;;6.20;99.90;;;;;;5067264;28;20248;-63
2021/12/15 07:35:30;;;;;;;2.07;1.67;;;6.20;99.90;;;;;;5067914;28;20206;-63
2021/12/15 07:38:01;;;;;;;4.47;1.80;;;6.30;99.90;;;;;;5066057;28;20209;-63
2021/12/15 07:40:30;;;;;;;2.17;1.90;;;6.30;99.90;;;;;;5067728;28;20793;-63
2021/12/15 07:43:06;;;;;;;2.83;2.10;;;6.20;99.90;;;;;;5067151;28;20442;-63
2021/12/15 07:45:36;;;;;;;2.47;1.80;;;6.20;99.90;;;;;;5064645;28;20208;-63
2021/12/15 07:48:05;;;;;;;2.83;1.80;;;6.20;99.90;;;;;;5066586;28;20261;-62
2021/12/15 07:50:37;;;;;;;2.37;1.50;;;6.20;99.90;;;;;;5064585;28;20672;-62
2021/12/15 07:53:07;;;;;;;2.97;1.70;;;6.20;99.90;;;;;;5065326;28;20209;-62
2021/12/15 07:55:34;;;;;;;3.03;2.17;;;6.20;99.90;;;;;;5064632;28;20220;-62
2021/12/15 07:58:02;;;;;;;3.30;2.30;;;6.30;99.90;;;;;;5065938;28;20261;-62
2021/12/15 08:00:30;;;;;;;3.97;1.97;;;6.30;99.90;;;;;;5066896;28;20205;-62
2021/12/15 08:02:58;;;;;;;3.63;1.73;;;6.30;99.90;;;;;;5061798;28;20216;-62
2021/12/15 08:05:26;;;;;;;2.37;1.80;;;6.40;99.90;;;;;;5057178;28;20198;-63
2021/12/15 08:07:54;;;;;;;5.20;1.77;;;6.40;99.90;;;;;;5053498;28;20207;-63
2021/12/15 08:10:22;;;;;;;4.17;1.83;;;6.40;99.90;;;;;;5059648;28;20218;-63
2021/12/15 08:12:49;;;;;;;4.17;2.43;;;6.50;99.90;;;;;;5054811;28;20201;-62
2021/12/15 08:15:17;;;;;;;4.80;2.33;;;6.50;99.90;;;;;;5054696;28;20244;-63
2021/12/15 08:17:48;;;;;;;3.63;2.50;;;6.50;99.90;;;;;;5059687;28;20226;-62
2021/12/15 08:20:17;;;;;;;4.00;2.50;;;6.60;99.90;;;;;;5053258;28;20179;-62
2021/12/15 08:22:44;;;;;;;5.30;2.23;;;6.60;99.90;;;;;;5057049;28;20682;-61
2021/12/15 08:25:13;;;;;;;4.50;2.20;;;6.60;99.90;;;;;;5057128;28;20204;-63
2021/12/15 08:27:42;;;;;;;6.97;2.20;;;6.70;99.90;;;;;;5056098;28;20194;-62
2021/12/15 08:30:12;;;;;;;3.53;2.07;;;6.80;99.90;;;;;;5057218;28;20218;-63
2021/12/15 08:32:40;;;;;;;3.43;2.27;;;6.80;99.90;;;;;;5052993;28;20210;-61
2021/12/15 08:35:09;;;;;;;3.00;1.93;;;6.80;99.90;;;;;;5054841;28;20202;-62
2021/12/15 08:37:36;;;;;;;4.40;1.87;;;6.90;99.90;;;;;;5050548;28;20230;-63
2021/12/15 08:40:04;;;;;;;3.90;2.10;;;6.90;99.90;;;;;;5055958;28;20198;-63
2021/12/15 08:42:32;;;;;;;4.67;2.40;;;6.90;99.90;;;;;;5060192;28;20195;-62
2021/12/15 08:45:06;;;;;;;3.13;2.20;;;6.90;99.90;;;;;;5056175;28;20559;-63
2021/12/15 08:47:33;;;;;;;4.13;2.40;;;7.00;99.90;;;;;;5052030;28;20248;-63
2021/12/15 08:50:00;;;;;;;4.17;2.03;;;7.00;99.90;;;;;;5052180;28;20214;-63
2021/12/15 08:52:27;;;;;;;3.50;2.27;;;7.10;99.90;;;;;;5053291;28;20230;-63
2021/12/15 08:54:54;;;;;;;2.37;1.87;;;7.10;99.90;;;;;;5058745;28;20190;-62
2021/12/15 08:57:21;;;;;;;4.33;1.97;;;7.10;99.90;;;;;;5059973;28;20850;-63
2021/12/15 08:59:48;;;;;;;4.53;2.53;;;7.10;99.90;;;;;;5054319;28;20194;-62
2021/12/15 09:02:17;;;;;;;5.07;1.93;;;7.10;99.90;;;;;;5051130;28;20676;-62
2021/12/15 09:04:44;;;;;;;5.27;2.67;;;7.20;99.90;;;;;;5050634;28;20253;-63
2021/12/15 09:07:11;;;;;;;4.27;2.37;;;7.20;99.90;;;;;;5056106;28;20301;-62
2021/12/15 09:09:38;;;;;;;5.13;2.90;;;7.20;99.90;;;;;;5059942;28;20194;-63
2021/12/15 09:12:06;;;;;;;6.60;2.70;;;7.20;99.90;;;;;;5055212;28;20665;-63
2021/12/15 09:14:33;;;;;;;4.87;2.77;;;7.30;99.90;;;;;;5047966;28;20310;-63
2021/12/15 09:17:02;;;;;;;4.13;2.40;;;7.30;99.90;;;;;;5045611;28;20202;-63
2021/12/15 09:19:31;;;;;;;4.97;2.10;;;7.30;99.90;;;;;;5045554;28;20214;-63
2021/12/15 09:21:59;;;;;;;4.20;2.43;;;7.30;99.90;;;;;;5045120;28;20232;-62
2021/12/15 09:24:27;;;;;;;2.13;1.50;;;7.40;99.90;;;;;;5049345;28;20201;-62
2021/12/15 09:26:55;;;;;;;8.40;2.03;;;7.40;99.90;;;;;;5055037;28;20258;-62
2021/12/15 09:29:23;;;;;;;2.67;1.43;;;7.40;99.90;;;;;;5053490;28;20736;-63
2021/12/15 09:31:50;;;;;;;2.80;2.10;;;7.40;99.90;;;;;;5055282;28;20624;-62
2021/12/15 09:34:18;;;;;;;1.97;1.47;;;7.40;99.90;;;;;;5050078;28;20194;-62
2021/12/15 09:36:51;;;;;;;3.50;1.93;;;7.40;99.90;;;;;;5051195;28;20191;-63
2021/12/15 09:39:21;;;;;;;1.47;1.20;;;7.40;99.90;;;;;;5055880;28;20225;-63
2021/12/15 09:41:49;;;;;;;2.47;1.53;;;7.40;99.90;;;;;;5053663;28;20194;-62
2021/12/15 09:44:20;;;;;;;1.27;1.17;;;7.40;99.90;;;;;;5051094;28;20194;-62
2021/12/15 09:47:11;;;;;;;2.37;1.80;;;7.40;99.90;;;;;;5053080;28;20195;-62
2021/12/15 10:06:45;;;;;;;7.33;3.50;;;7.30;99.90;;;;;;4972449;28;20252;-62
2021/12/15 10:12:21;;;;;;;7.93;3.43;;;7.40;99.90;;;;;;4977158;28;20276;-63
2021/12/15 10:17:45;;;;;;;5.90;2.90;;;7.40;99.90;;;;;;4975627;28;20263;-62
2021/12/15 10:20:20;;;;;;;6.27;3.13;;;7.40;99.90;;;;;;4977559;28;20184;-62
2021/12/15 10:22:51;;;;;;;5.53;2.97;;;7.40;99.90;;;;;;4982273;28;20300;-62
2021/12/15 10:25:24;;;;;;;4.53;2.27;;;7.50;99.90;;;;;;4983389;28;20192;-63
2021/12/15 10:27:54;;;;;;;7.03;3.63;;;7.50;99.90;;;;;;4983561;28;20204;-62
2021/12/15 10:30:25;;;;;;;6.07;3.20;;;7.60;99.90;;;;;;5064777;28;20268;-62
2021/12/15 10:32:58;;;;;;;5.90;2.80;;;7.60;99.90;;;;;;5064491;28;20205;-62
2021/12/15 10:35:28;;;;;;;5.47;2.57;;;7.70;99.90;;;;;;5065092;28;20185;-63
2021/12/15 10:38:19;;;;;;;5.07;3.27;;;7.70;99.90;;;;;;5063634;28;20711;-62
2021/12/15 10:40:51;;;;;;;4.70;2.70;;;7.80;99.90;;;;;;5055441;28;20297;-62
2021/12/15 10:43:20;;;;;;;5.10;2.20;;;7.80;99.90;;;;;;5053698;28;20226;-62
2021/12/15 10:45:53;;;;;;;6.33;2.43;;;7.90;99.90;;;;;;5053457;28;20205;-63
2021/12/15 10:48:34;;;;;;;5.80;2.77;;;8.00;99.90;;;;;;5052720;28;20213;-62
2021/12/15 10:51:05;;;;;;;5.43;2.57;;;8.00;99.90;;;;;;5054584;28;20213;-62
2021/12/15 10:53:35;;;;;;;5.47;2.97;;;8.00;99.90;;;;;;5055937;28;20273;-62
2021/12/15 10:56:10;;;;;;;4.37;2.30;;;8.10;99.90;;;;;;5056682;28;20250;-62
2021/12/15 10:58:41;;;;;;;5.60;2.60;;;8.10;99.90;;;;;;5056711;28;20568;-62
2021/12/15 11:01:42;;;;;;;4.00;1.80;;;8.10;99.90;;;;;;5062700;28;20190;-62
2021/12/15 11:04:42;;;;;;;5.03;2.40;;;8.10;99.90;;;;;;5056628;28;20201;-62
2021/12/15 11:07:28;;;;;;;3.20;2.20;;;8.20;99.90;;;;;;5056938;28;20198;-62
2021/12/15 11:09:59;;;;;;;4.50;2.30;;;8.10;99.90;;;;;;5057239;28;20186;-63
2021/12/15 11:12:32;;;;;;;6.27;2.43;;;8.20;99.90;;;;;;5059324;28;20289;-62
2021/12/15 11:15:01;;;;;;;4.50;2.50;;;8.20;99.90;;;;;;5053557;28;20238;-62
2021/12/15 11:17:31;;;;;;;5.27;2.80;;;8.20;99.90;;;;;;5055785;28;20266;-62
2021/12/15 11:20:04;;;;;;;4.87;2.40;;;8.20;99.90;;;;;;5057894;28;20273;-62
2021/12/15 11:22:39;;;;;;;7.40;2.80;;;8.20;99.90;;;;;;5053195;28;20203;-62
2021/12/15 11:25:09;;;;;;;5.67;2.60;;;8.20;99.90;;;;;;5058770;28;20252;-63
2021/12/15 11:27:38;;;;;;;4.77;2.70;;;8.30;99.90;;;;;;5061199;28;20205;-63
2021/12/15 11:30:08;;;;;;;5.27;2.10;;;8.40;99.90;;;;;;5060779;28;20251;-62
2021/12/15 11:32:38;;;;;;;5.70;2.50;;;8.40;99.90;;;;;;5055887;28;20258;-62
2021/12/15 11:35:08;;;;;;;6.07;2.90;;;8.40;99.90;;;;;;5058384;28;20232;-63
2021/12/15 11:37:51;;;;;;;2.77;2.40;;;8.50;99.90;;;;;;5057958;28;20209;-62
2021/12/15 11:40:25;;;;;;;3.07;2.20;;;8.50;99.90;;;;;;5058432;28;20641;-62
2021/12/15 11:42:54;;;;;;;3.53;2.40;;;8.50;99.90;;;;;;5057948;28;20261;-63
2021/12/15 11:45:21;;;;;;;3.97;2.33;;;8.50;99.90;;;;;;5061469;28;20220;-62
2021/12/15 11:47:48;;;;;;;4.47;2.40;;;8.60;99.90;;;;;;5064731;28;20245;-62
2021/12/15 11:50:19;;;;;;;5.73;2.43;;;8.60;99.90;;;;;;5068434;28;20202;-62
2021/12/15 11:52:48;;;;;;;4.17;2.13;;;8.60;99.90;;;;;;5065755;28;20286;-62
2021/12/15 11:55:24;;;;;;;4.40;2.07;;;8.70;99.90;;;;;;5070404;28;20206;-63
2021/12/15 11:57:52;;;;;;;2.77;1.77;;;8.60;99.90;;;;;;5076431;28;20639;-62
2021/12/15 12:00:25;;;;;;;1.80;1.43;;;8.60;99.90;;;;;;5075527;28;20284;-62
2021/12/15 12:02:54;;;;;;;2.53;1.83;;;8.60;99.90;;;;;;5071154;28;20206;-62
2021/12/15 12:05:25;;;;;;;1.77;1.17;;;8.60;99.90;;;;;;5066152;28;20703;-62
2021/12/15 12:07:57;;;;;;;2.93;1.90;;;8.60;99.90;;;;;;5065776;28;20214;-62
2021/12/15 12:10:30;;;;;;;3.97;2.27;;;8.60;99.90;;;;;;5067162;28;20193;-63
2021/12/15 12:13:05;;;;;;;3.77;2.67;;;8.70;99.90;;;;;;5066880;28;20209;-62
2021/12/15 12:15:35;;;;;;;2.00;1.37;;;8.70;99.90;;;;;;5066955;28;20233;-63
2021/12/15 12:18:05;;;;;;;2.63;1.80;;;8.80;99.90;;;;;;5066346;28;20236;-63
2021/12/15 12:20:34;;;;;;;2.73;1.57;;;8.80;99.90;;;;;;5060880;28;20191;-62
2021/12/15 12:23:03;;;;;;;4.43;2.03;;;8.80;99.90;;;;;;5061899;28;20244;-63
2021/12/15 12:25:37;;;;;;;8.70;2.07;;;8.80;99.90;;;;;;5063383;28;20193;-62
2021/12/15 12:28:08;;;;;;;3.23;1.47;;;8.80;99.90;;;;;;5065742;28;20666;-63
2021/12/15 12:30:38;;;;;;;3.80;2.30;;;8.80;99.90;;;;;;5065708;28;20197;-63
2021/12/15 12:33:09;;;;;;;2.80;1.80;;;8.80;99.90;;;;;;5056670;28;20252;-62
2021/12/15 12:35:39;;;;;;;1.87;1.57;;;8.80;99.90;;;;;;5055165;28;20651;-64
2021/12/15 12:38:10;;;;;;;3.47;1.67;;;8.80;99.90;;;;;;5055840;28;20202;-62
2021/12/15 12:40:46;;;;;;;3.20;1.90;;;8.80;99.90;;;;;;5058266;28;20187;-63
2021/12/15 12:43:28;;;;;;;3.83;2.13;;;8.80;99.90;;;;;;5057976;28;20205;-62
2021/12/15 12:46:07;;;;;;;2.23;1.77;;;8.80;99.90;;;;;;5066266;28;20644;-62
2021/12/15 12:48:50;;;;;;;2.27;1.33;;;8.80;99.90;;;;;;5065478;28;20542;-63
2021/12/15 12:59:44;;;;;;;5.37;2.40;;;8.80;99.90;;;;;;5056272;28;20252;-62
2021/12/15 13:02:40;;;;;;;2.27;1.67;;;8.80;99.90;;;;;;5054937;28;20201;-62
2021/12/15 13:05:29;;;;;;;1.53;1.30;;;8.80;99.90;;;;;;5054055;28;20247;-62
2021/12/15 13:07:59;;;;;;;2.70;1.53;;;8.80;99.90;;;;;;5050976;28;20237;-61
2021/12/15 13:10:51;;;;;;;1.83;1.47;;;8.80;99.90;;;;;;5064582;28;20511;-62
2021/12/15 13:13:22;;;;;;;3.67;2.20;;;8.80;99.90;;;;;;5062734;28;20198;-62
2021/12/15 13:15:56;;;;;;;5.47;2.47;;;8.80;99.90;;;;;;5061525;28;20275;-62
2021/12/15 13:18:24;;;;;;;4.63;2.17;;;8.80;99.90;;;;;;5066145;28;20234;-62
2021/12/15 13:20:57;;;;;;;4.73;2.63;;;8.80;99.90;;;;;;5064372;28;20723;-63
2021/12/15 13:23:43;;;;;;;2.40;1.80;;;8.70;99.90;;;;;;5053125;28;20198;-62
2021/12/15 13:29:20;;;;;;;5.10;2.67;;;8.70;99.90;;;;;;5062858;28;20229;-62
2021/12/15 13:31:57;;;;;;;4.23;2.60;;;8.70;99.90;;;;;;5061596;28;20210;-62
2021/12/15 13:34:44;;;;;;;7.27;3.07;;;8.70;99.90;;;;;;5065422;28;20208;-62
2021/12/15 13:37:11;;;;;;;5.60;2.70;;;8.70;99.90;;;;;;5065222;28;20189;-62
2021/12/15 13:39:45;;;;;;;4.80;2.90;;;8.70;99.90;;;;;;5062911;28;20213;-62
2021/12/15 13:42:15;;;;;;;2.80;2.20;;;8.60;99.90;;;;;;5057838;28;20706;-64
2021/12/15 13:44:44;;;;;;;4.73;2.50;;;8.60;99.90;;;;;;5059045;28;20282;-62
2021/12/15 13:47:19;;;;;;;3.30;2.10;;;8.60;99.90;;;;;;5054127;28;20201;-63
2021/12/15 13:49:49;;;;;;;4.57;2.30;;;8.60;99.90;;;;;;5063773;28;20205;-62
2021/12/15 13:52:34;;;;;;;4.37;2.10;;;8.60;99.90;;;;;;5064779;28;20313;-62
2021/12/15 13:55:26;;;;;;;5.20;2.67;;;8.60;99.90;;;;;;5064326;28;20216;-63
2021/12/15 13:58:01;;;;;;;3.47;2.17;;;8.60;99.90;;;;;;5064471;28;20683;-63
2021/12/15 14:00:36;;;;;;;4.37;2.70;;;8.60;99.90;;;;;;5065279;28;20201;-63
2021/12/15 14:03:16;;;;;;;3.80;1.80;;;8.60;99.90;;;;;;5064825;28;20213;-63
2021/12/15 14:05:46;;;;;;;5.93;2.37;;;8.60;99.90;;;;;;5064837;28;20253;-62
2021/12/15 14:08:16;;;;;;;3.53;2.10;;;8.50;99.90;;;;;;5063852;28;20278;-62
2021/12/15 14:10:48;;;;;;;4.73;2.30;;;8.50;99.90;;;;;;5065119;28;20186;-63
2021/12/15 14:13:15;;;;;;;3.03;1.90;;;8.50;99.90;;;;;;5064659;28;20202;-63
2021/12/15 14:15:51;;;;;;;3.10;2.07;;;8.50;99.90;;;;;;5064439;28;20237;-62
2021/12/15 14:18:24;;;;;;;3.43;2.40;;;8.50;99.90;;;;;;5064583;28;20216;-63
2021/12/15 14:20:55;;;;;;;3.77;1.77;;;8.50;99.90;;;;;;5065085;28;20196;-63
2021/12/15 14:23:25;;;;;;;4.03;2.07;;;8.40;99.90;;;;;;5063052;28;20319;-61